Time;durP1;ratioP1;P1;durP2;ratioP2;P2;SDS_P1;SDS_P2;PMS_P1;PMS_P2;Temp;Humidity;BMP_temperature;BMP_pressure;BME280_temperature;BME280_humidity;BME280_pressure;Samples;Min_cycle;Max_cycle;Signal;HPM_P1;HPM_P2
2021/03/07 00:01:39;;;;;;;;;21.00;21.00;;;;;;;;5027448;27;113449;-73
2021/03/07 00:04:05;;;;;;;;;26.33;22.67;;;;;;;;5024075;27;114644;-72
2021/03/07 00:06:32;;;;;;;;;16.33;15.67;;;;;;;;5023609;27;111831;-73
2021/03/07 00:08:58;;;;;;;;;29.33;26.00;;;;;;;;5029783;27;113864;-72
2021/03/07 00:11:24;;;;;;;;;28.67;27.33;;;;;;;;5024773;27;112719;-73
2021/03/07 00:13:50;;;;;;;;;7.67;7.00;;;;;;;;5025997;27;113711;-72
2021/03/07 00:16:16;;;;;;;;;13.00;13.00;;;;;;;;5025215;27;114128;-72
2021/03/07 00:18:43;;;;;;;;;10.00;9.00;;;;;;;;5024248;27;112075;-72
2021/03/07 00:21:09;;;;;;;;;13.00;9.33;;;;;;;;5027743;27;113548;-72
2021/03/07 00:23:35;;;;;;;;;14.33;10.33;;;;;;;;5024157;27;114070;-73
2021/03/07 00:26:01;;;;;;;;;13.00;10.33;;;;;;;;5024790;27;112012;-72
2021/03/07 00:28:27;;;;;;;;;12.00;10.67;;;;;;;;5026985;27;113566;-73
2021/03/07 00:30:53;;;;;;;;;12.67;12.67;;;;;;;;5031153;27;114266;-73
2021/03/07 00:33:19;;;;;;;;;11.00;10.00;;;;;;;;5026867;27;113630;-73
2021/03/07 00:35:46;;;;;;;;;10.33;10.33;;;;;;;;5024797;27;116012;-72
2021/03/07 00:38:12;;;;;;;;;13.00;12.67;;;;;;;;5026768;27;111951;-73
2021/03/07 00:40:38;;;;;;;;;9.00;8.67;;;;;;;;5024421;27;113437;-73
2021/03/07 00:43:04;;;;;;;;;8.67;8.67;;;;;;;;5027135;27;114101;-73
2021/03/07 00:45:31;;;;;;;;;9.00;8.67;;;;;;;;5024546;27;111990;-74
2021/03/07 00:47:57;;;;;;;;;6.00;5.67;;;;;;;;5026939;27;113774;-72
2021/03/07 00:50:24;;;;;;;;;10.33;9.00;;;;;;;;5025097;27;114153;-73
2021/03/07 00:52:51;;;;;;;;;10.00;9.00;;;;;;;;5032329;27;113213;-72
2021/03/07 00:55:17;;;;;;;;;12.33;9.00;;;;;;;;5024364;27;113676;-72
2021/03/07 00:57:43;;;;;;;;;10.00;9.00;;;;;;;;5023585;27;112168;-73
2021/03/07 01:00:11;;;;;;;;;9.00;9.00;;;;;;;;5025215;27;113413;-73
2021/03/07 01:02:37;;;;;;;;;6.00;6.00;;;;;;;;5026353;27;114115;-72
2021/03/07 01:05:04;;;;;;;;;13.33;10.67;;;;;;;;5024585;27;111834;-73
2021/03/07 01:07:30;;;;;;;;;12.67;9.67;;;;;;;;5027530;27;114201;-73
2021/03/07 01:09:56;;;;;;;;;13.00;11.67;;;;;;;;5023862;27;113941;-73
2021/03/07 01:12:22;;;;;;;;;9.67;9.67;;;;;;;;5030416;27;112602;-73
2021/03/07 01:14:48;;;;;;;;;9.67;9.67;;;;;;;;5025110;27;114635;-74
2021/03/07 01:17:14;;;;;;;;;11.33;10.00;;;;;;;;5025240;27;112379;-74
2021/03/07 01:19:40;;;;;;;;;10.00;10.00;;;;;;;;5026489;27;113739;-73
2021/03/07 01:22:07;;;;;;;;;11.00;10.33;;;;;;;;5023154;27;113925;-73
2021/03/07 01:24:33;;;;;;;;;11.00;10.67;;;;;;;;5024477;27;111834;-73
2021/03/07 01:27:00;;;;;;;;;15.00;13.00;;;;;;;;5024234;27;113994;-72
2021/03/07 01:29:26;;;;;;;;;13.33;13.33;;;;;;;;5025962;27;114681;-73
2021/03/07 01:31:52;;;;;;;;;17.67;14.00;;;;;;;;5024641;27;111975;-73
2021/03/07 01:34:19;;;;;;;;;16.33;14.00;;;;;;;;5029396;27;113411;-73
2021/03/07 01:36:45;;;;;;;;;14.00;13.33;;;;;;;;5029864;27;112073;-73
2021/03/07 01:39:11;;;;;;;;;12.00;12.00;;;;;;;;5024259;27;113445;-73
2021/03/07 01:41:37;;;;;;;;;17.00;12.33;;;;;;;;5027708;27;114051;-73
2021/03/07 01:44:04;;;;;;;;;16.00;15.33;;;;;;;;5027356;27;112294;-73
2021/03/07 01:46:30;;;;;;;;;19.33;19.33;;;;;;;;5027096;27;113708;-73
2021/03/07 01:48:56;;;;;;;;;16.67;15.33;;;;;;;;5028950;27;114147;-73
2021/03/07 01:51:22;;;;;;;;;19.67;17.00;;;;;;;;5025177;27;112243;-72
2021/03/07 01:53:48;;;;;;;;;16.33;13.33;;;;;;;;5028406;27;113564;-73
2021/03/07 01:56:16;;;;;;;;;20.33;20.33;;;;;;;;5032317;27;114427;-73
2021/03/07 01:58:43;;;;;;;;;21.00;18.00;;;;;;;;5027800;27;113816;-74
2021/03/07 02:01:10;;;;;;;;;21.00;19.00;;;;;;;;5029345;27;114174;-73
2021/03/07 02:03:36;;;;;;;;;20.33;20.33;;;;;;;;5026654;27;112002;-73
2021/03/07 02:06:02;;;;;;;;;21.33;21.00;;;;;;;;5029950;27;113587;-73
2021/03/07 02:08:28;;;;;;;;;23.00;22.75;;;;;;;;5026870;27;114307;-73
2021/03/07 02:10:55;;;;;;;;;28.50;26.75;;;;;;;;5029260;27;112598;-73
2021/03/07 02:13:23;;;;;;;;;11.33;11.33;;;;;;;;5027807;27;113478;-73
2021/03/07 02:15:51;;;;;;;;;13.67;10.67;;;;;;;;5027863;27;114176;-73
2021/03/07 02:18:18;;;;;;;;;16.00;13.33;;;;;;;;5032485;27;112684;-73
2021/03/07 02:20:47;;;;;;;;;10.00;9.00;;;;;;;;5029858;27;114137;-73
2021/03/07 02:23:16;;;;;;;;;10.00;9.00;;;;;;;;5028488;27;112223;-74
2021/03/07 02:25:43;;;;;;;;;10.00;8.33;;;;;;;;5028107;27;113932;-72
2021/03/07 02:28:09;;;;;;;;;11.67;9.33;;;;;;;;5026747;27;114386;-73
2021/03/07 02:30:36;;;;;;;;;9.00;8.00;;;;;;;;5029557;27;112331;-73
2021/03/07 02:33:06;;;;;;;;;8.67;8.67;;;;;;;;5026113;27;113591;-73
2021/03/07 02:35:34;;;;;;;;;7.33;5.00;;;;;;;;5024828;27;114074;-73
2021/03/07 02:38:01;;;;;;;;;10.00;8.67;;;;;;;;5026539;27;111847;-73
2021/03/07 02:40:28;;;;;;;;;9.67;8.00;;;;;;;;5029637;27;113598;-74
2021/03/07 02:42:57;;;;;;;;;9.67;9.00;;;;;;;;5029026;27;112060;-73
2021/03/07 02:45:24;;;;;;;;;9.00;9.00;;;;;;;;5020262;27;112880;-73
2021/03/07 02:47:51;;;;;;;;;9.00;9.00;;;;;;;;5027704;27;114151;-73
2021/03/07 02:50:20;;;;;;;;;10.00;9.67;;;;;;;;5025992;27;112110;-73
2021/03/07 02:52:48;;;;;;;;;10.67;10.67;;;;;;;;5023713;27;112745;-73
2021/03/07 02:55:16;;;;;;;;;8.67;8.67;;;;;;;;5024372;27;114143;-75
2021/03/07 02:57:43;;;;;;;;;12.00;12.00;;;;;;;;5027080;27;112764;-75
2021/03/07 03:00:11;;;;;;;;;10.33;9.00;;;;;;;;5025155;27;113599;-74
2021/03/07 03:02:38;;;;;;;;;18.00;10.67;;;;;;;;5031473;27;114091;-73
2021/03/07 03:05:10;;;;;;;;;18.00;15.33;;;;;;;;5025790;27;113198;-74
2021/03/07 03:07:37;;;;;;;;;18.00;14.00;;;;;;;;5020659;27;113001;-75
2021/03/07 03:10:04;;;;;;;;;18.33;17.00;;;;;;;;5029755;27;112779;-73
2021/03/07 03:12:30;;;;;;;;;21.25;21.25;;;;;;;;5025541;27;112489;-74
2021/03/07 03:14:57;;;;;;;;;16.67;16.00;;;;;;;;5027517;27;114248;-74
2021/03/07 03:17:25;;;;;;;;;16.00;16.00;;;;;;;;5027263;27;111906;-75
2021/03/07 03:19:51;;;;;;;;;12.33;11.33;;;;;;;;5028340;27;113733;-75
2021/03/07 03:22:17;;;;;;;;;15.33;12.00;;;;;;;;5030782;27;114138;-75
2021/03/07 03:24:43;;;;;;;;;14.00;14.00;;;;;;;;5026923;27;113601;-74
2021/03/07 03:27:11;;;;;;;;;17.00;13.33;;;;;;;;5028300;27;114306;-74
2021/03/07 03:29:38;;;;;;;;;16.00;13.33;;;;;;;;5025689;27;112546;-74
2021/03/07 03:32:05;;;;;;;;;14.00;12.00;;;;;;;;5033723;27;113781;-74
2021/03/07 03:34:32;;;;;;;;;19.67;18.67;;;;;;;;5025493;27;113982;-74
2021/03/07 03:36:58;;;;;;;;;13.33;12.33;;;;;;;;5028415;27;113576;-75
2021/03/07 03:39:25;;;;;;;;;14.00;14.00;;;;;;;;5026825;27;113454;-74
2021/03/07 03:41:52;;;;;;;;;15.33;15.33;;;;;;;;5020116;27;113148;-75
2021/03/07 03:44:21;;;;;;;;;16.00;14.00;;;;;;;;5031105;27;112528;-74
2021/03/07 03:46:47;;;;;;;;;14.00;14.00;;;;;;;;5019416;27;113278;-75
2021/03/07 03:49:23;;;;;;;;;17.33;14.67;;;;;;;;5024902;27;112015;-75
2021/03/07 03:51:53;;;;;;;;;18.33;18.33;;;;;;;;5027656;27;113554;-75
2021/03/07 03:54:21;;;;;;;;;23.00;19.00;;;;;;;;5026182;27;114196;-74
2021/03/07 03:56:49;;;;;;;;;14.00;13.33;;;;;;;;5026602;27;112060;-74
2021/03/07 03:59:16;;;;;;;;;15.00;13.33;;;;;;;;5027594;27;114007;-75
2021/03/07 04:01:42;;;;;;;;;19.33;17.33;;;;;;;;5025374;27;114717;-75
2021/03/07 04:04:08;;;;;;;;;13.67;13.00;;;;;;;;5027973;27;112701;-75
2021/03/07 04:06:35;;;;;;;;;14.33;12.00;;;;;;;;5028289;27;113518;-75
2021/03/07 04:09:03;;;;;;;;;10.00;10.00;;;;;;;;5028810;27;111860;-74
2021/03/07 04:11:29;;;;;;;;;10.00;10.00;;;;;;;;5025285;27;113548;-74
2021/03/07 04:13:55;;;;;;;;;9.00;9.00;;;;;;;;5023890;27;113059;-74
2021/03/07 04:16:21;;;;;;;;;9.00;9.00;;;;;;;;5026111;27;112706;-74
2021/03/07 04:18:48;;;;;;;;;11.00;9.67;;;;;;;;5020402;27;112558;-75
2021/03/07 04:21:14;;;;;;;;;6.00;6.00;;;;;;;;5026762;27;114269;-74
2021/03/07 04:23:40;;;;;;;;;7.33;6.67;;;;;;;;5025389;27;112238;-74
2021/03/07 04:26:07;;;;;;;;;8.00;6.00;;;;;;;;5025019;27;112305;-74
2021/03/07 04:28:33;;;;;;;;;6.00;6.00;;;;;;;;5021255;27;113321;-74
2021/03/07 04:30:59;;;;;;;;;6.67;6.67;;;;;;;;5025412;27;113598;-74
2021/03/07 04:33:26;;;;;;;;;8.67;6.00;;;;;;;;5020213;27;113091;-73
2021/03/07 04:35:52;;;;;;;;;8.33;7.33;;;;;;;;5025585;27;112184;-74
2021/03/07 04:38:18;;;;;;;;;5.33;4.67;;;;;;;;5027358;27;114293;-74
2021/03/07 04:40:44;;;;;;;;;12.00;8.67;;;;;;;;5025778;27;114142;-74
2021/03/07 04:43:11;;;;;;;;;8.67;8.33;;;;;;;;5025646;27;112337;-74
2021/03/07 04:45:37;;;;;;;;;10.33;8.67;;;;;;;;5027704;27;114188;-74
2021/03/07 04:48:03;;;;;;;;;7.33;7.33;;;;;;;;5024216;27;114114;-74
2021/03/07 04:50:30;;;;;;;;;11.67;8.67;;;;;;;;5028783;27;111883;-74
2021/03/07 04:52:55;;;;;;;;;10.00;8.67;;;;;;;;5026806;27;114523;-74
2021/03/07 04:55:21;;;;;;;;;8.67;8.67;;;;;;;;5025434;27;111980;-74
2021/03/07 04:57:47;;;;;;;;;10.33;8.33;;;;;;;;5024619;27;115782;-74
2021/03/07 05:00:16;;;;;;;;;11.67;6.00;;;;;;;;5025536;27;113941;-75
2021/03/07 05:02:42;;;;;;;;;8.33;5.00;;;;;;;;5026495;27;113204;-74
2021/03/07 05:05:08;;;;;;;;;9.00;8.00;;;;;;;;5018667;27;112449;-74
2021/03/07 05:07:35;;;;;;;;;10.67;9.00;;;;;;;;5027237;27;117258;-74
2021/03/07 05:10:01;;;;;;;;;12.00;9.00;;;;;;;;5024101;27;112308;-74
2021/03/07 05:12:27;;;;;;;;;11.67;8.00;;;;;;;;5027414;27;113806;-74
2021/03/07 05:14:53;;;;;;;;;9.00;8.67;;;;;;;;5020019;27;112196;-74
2021/03/07 05:17:20;;;;;;;;;10.67;9.00;;;;;;;;5033232;27;113507;-74
2021/03/07 05:19:46;;;;;;;;;11.67;9.00;;;;;;;;5028551;27;114062;-75
2021/03/07 05:22:11;;;;;;;;;9.00;9.00;;;;;;;;5029932;27;112410;-74
2021/03/07 05:24:39;;;;;;;;;14.00;11.33;;;;;;;;5027823;27;113543;-74
2021/03/07 05:27:06;;;;;;;;;10.33;8.00;;;;;;;;5031337;27;114250;-74
2021/03/07 05:29:32;;;;;;;;;8.67;7.00;;;;;;;;5027206;27;111812;-74
2021/03/07 05:31:58;;;;;;;;;12.00;8.00;;;;;;;;5038676;27;115504;-74
2021/03/07 05:34:25;;;;;;;;;13.00;8.00;;;;;;;;5028893;27;113551;-74
2021/03/07 05:36:51;;;;;;;;;11.33;9.67;;;;;;;;5029491;27;113554;-74
2021/03/07 05:39:17;;;;;;;;;11.33;11.00;;;;;;;;5028877;27;114019;-74
2021/03/07 05:41:43;;;;;;;;;8.00;8.00;;;;;;;;5033148;27;112433;-74
2021/03/07 05:44:09;;;;;;;;;11.00;11.00;;;;;;;;5030352;27;113628;-73
2021/03/07 05:46:37;;;;;;;;;19.25;11.25;;;;;;;;5026613;27;114207;-73
2021/03/07 05:49:04;;;;;;;;;12.00;9.00;;;;;;;;5031527;27;112005;-73
2021/03/07 05:51:31;;;;;;;;;11.00;11.00;;;;;;;;5027546;27;113728;-74
2021/03/07 05:53:57;;;;;;;;;9.00;8.00;;;;;;;;5033601;27;114103;-74
2021/03/07 05:56:23;;;;;;;;;13.33;9.00;;;;;;;;5027921;27;113686;-74
2021/03/07 05:58:49;;;;;;;;;8.00;8.00;;;;;;;;5029015;27;114145;-74
2021/03/07 06:01:16;;;;;;;;;7.33;7.33;;;;;;;;5029102;27;112271;-74
2021/03/07 06:03:42;;;;;;;;;10.33;8.33;;;;;;;;5027988;27;113531;-73
2021/03/07 06:06:08;;;;;;;;;8.00;7.00;;;;;;;;5029877;27;113976;-74
2021/03/07 06:08:35;;;;;;;;;8.67;7.33;;;;;;;;5030054;27;112309;-74
2021/03/07 06:11:01;;;;;;;;;8.00;7.00;;;;;;;;5030930;27;113710;-73
2021/03/07 06:13:36;;;;;;;;;8.00;7.00;;;;;;;;5026567;27;114252;-73
2021/03/07 06:16:06;;;;;;;;;8.00;5.00;;;;;;;;5030916;27;111994;-72
2021/03/07 06:18:39;;;;;;;;;9.00;7.67;;;;;;;;5018832;27;112941;-74
2021/03/07 06:21:25;;;;;;;;;7.00;7.00;;;;;;;;5027753;27;112304;-74
2021/03/07 06:23:51;;;;;;;;;6.33;5.00;;;;;;;;5027790;27;113560;-73
2021/03/07 06:26:17;;;;;;;;;7.33;7.33;;;;;;;;5027696;27;114002;-72
2021/03/07 06:28:43;;;;;;;;;12.00;8.67;;;;;;;;5028969;27;112919;-73
2021/03/07 06:31:28;;;;;;;;;8.00;8.00;;;;;;;;5028201;27;113402;-73
2021/03/07 06:33:56;;;;;;;;;9.00;7.75;;;;;;;;5027030;27;114059;-73
2021/03/07 06:36:23;;;;;;;;;10.50;8.50;;;;;;;;5029522;27;112140;-75
2021/03/07 06:38:50;;;;;;;;;11.00;8.00;;;;;;;;5031174;27;114016;-74
2021/03/07 06:41:17;;;;;;;;;11.25;9.00;;;;;;;;5028493;27;113427;-73
2021/03/07 06:43:43;;;;;;;;;6.33;6.33;;;;;;;;5028447;27;113663;-73
2021/03/07 06:46:24;;;;;;;;;14.00;7.00;;;;;;;;5026349;27;114157;-74
2021/03/07 06:48:50;;;;;;;;;6.33;5.00;;;;;;;;5027047;27;112307;-74
2021/03/07 06:51:24;;;;;;;;;5.67;5.67;;;;;;;;5029170;27;112612;-74
2021/03/07 06:53:50;;;;;;;;;12.00;9.00;;;;;;;;5025685;27;114105;-75
2021/03/07 06:56:37;;;;;;;;;3.33;3.33;;;;;;;;5028624;27;112125;-74
2021/03/07 06:59:09;;;;;;;;;7.33;7.33;;;;;;;;5026486;27;113782;-73
2021/03/07 07:01:38;;;;;;;;;12.00;8.00;;;;;;;;5032429;27;114327;-75
2021/03/07 07:04:04;;;;;;;;;9.00;8.33;;;;;;;;5026477;27;113611;-74
2021/03/07 07:06:32;;;;;;;;;7.50;7.50;;;;;;;;5029420;27;113973;-75
2021/03/07 07:08:59;;;;;;;;;12.00;9.00;;;;;;;;5026136;27;111985;-74
2021/03/07 07:11:26;;;;;;;;;12.00;9.67;;;;;;;;5029126;27;113680;-74
2021/03/07 07:13:52;;;;;;;;;8.67;8.00;;;;;;;;5026408;27;113999;-74
2021/03/07 07:16:19;;;;;;;;;10.33;10.33;;;;;;;;5024907;27;112072;-75
2021/03/07 07:18:46;;;;;;;;;13.00;9.00;;;;;;;;5031339;27;114093;-76
2021/03/07 07:21:13;;;;;;;;;8.67;8.67;;;;;;;;5027054;27;114306;-76
2021/03/07 07:23:39;;;;;;;;;9.00;9.00;;;;;;;;5028541;27;112932;-76
2021/03/07 07:26:05;;;;;;;;;11.00;11.00;;;;;;;;5020399;27;112847;-74
2021/03/07 07:28:33;;;;;;;;;8.67;8.00;;;;;;;;5027598;27;111822;-74
2021/03/07 07:31:01;;;;;;;;;10.00;8.00;;;;;;;;5024391;27;113495;-73
2021/03/07 07:33:33;;;;;;;;;8.33;6.67;;;;;;;;5027228;27;114310;-76
2021/03/07 07:36:00;;;;;;;;;9.00;9.00;;;;;;;;5024635;27;111949;-73
2021/03/07 07:38:27;;;;;;;;;11.00;9.00;;;;;;;;5024316;27;112393;-78
2021/03/07 07:40:53;;;;;;;;;12.33;11.00;;;;;;;;5030102;27;114036;-75
2021/03/07 07:43:19;;;;;;;;;14.33;11.33;;;;;;;;5035017;27;112722;-75
2021/03/07 07:45:46;;;;;;;;;15.00;13.00;;;;;;;;5024480;27;114212;-77
2021/03/07 07:48:12;;;;;;;;;6.00;3.67;;;;;;;;5025999;27;111888;-75
2021/03/07 07:50:40;;;;;;;;;3.67;1.00;;;;;;;;5020036;27;113416;-76
2021/03/07 07:53:06;;;;;;;;;5.33;3.67;;;;;;;;5027404;27;113976;-78
2021/03/07 07:55:45;;;;;;;;;6.67;6.33;;;;;;;;5022916;27;112576;-79
2021/03/07 07:58:12;;;;;;;;;6.00;4.00;;;;;;;;5024169;27;114443;-76
2021/03/07 08:00:48;;;;;;;;;6.33;3.00;;;;;;;;5027632;27;114429;-79
2021/03/07 08:03:31;;;;;;;;;3.00;3.00;;;;;;;;5025828;27;112220;-79
2021/03/07 08:06:00;;;;;;;;;6.67;4.00;;;;;;;;5029162;27;114316;-79
2021/03/07 08:08:30;;;;;;;;;3.00;3.00;;;;;;;;5027418;27;112679;-82
2021/03/07 08:10:56;;;;;;;;;6.33;6.00;;;;;;;;5029079;27;112230;-80
2021/03/07 08:13:41;;;;;;;;;4.00;4.00;;;;;;;;5024795;27;113830;-81
2021/03/07 08:16:08;;;;;;;;;7.67;5.33;;;;;;;;5026226;27;112237;-82
2021/03/07 08:18:52;;;;;;;;;8.67;7.00;;;;;;;;5027553;27;112784;-81
2021/03/07 08:21:18;;;;;;;;;13.67;10.67;;;;;;;;5024433;27;114098;-82
2021/03/07 08:23:55;;;;;;;;;8.00;7.00;;;;;;;;5025779;27;111910;-76
2021/03/07 08:26:24;;;;;;;;;9.75;7.00;;;;;;;;5027115;27;113435;-77
2021/03/07 08:28:50;;;;;;;;;6.00;5.00;;;;;;;;5022532;27;113900;-78
2021/03/07 08:31:37;;;;;;;;;8.50;7.50;;;;;;;;5026713;27;113443;-78
2021/03/07 08:34:25;;;;;;;;;9.00;8.00;;;;;;;;5014764;27;116288;-78
2021/03/07 08:36:52;;;;;;;;;10.00;7.25;;;;;;;;5028099;27;112164;-85
2021/03/07 08:39:19;;;;;;;;;5.75;5.75;;;;;;;;5027122;27;113590;-83
2021/03/07 08:41:58;;;;;;;;;7.00;7.00;;;;;;;;5027891;27;114426;-81
2021/03/07 08:44:24;;;;;;;;;6.00;6.00;;;;;;;;5013107;27;112035;-83
2021/03/07 08:46:50;;;;;;;;;6.00;5.25;;;;;;;;5021751;27;113382;-77
2021/03/07 08:49:17;;;;;;;;;10.25;10.25;;;;;;;;5024675;27;114308;-81
2021/03/07 08:51:45;;;;;;;;;8.25;6.00;;;;;;;;5029149;27;111951;-77
2021/03/07 08:54:11;;;;;;;;;10.25;10.00;;;;;;;;5028883;27;114328;-79
2021/03/07 08:56:38;;;;;;;;;10.00;9.00;;;;;;;;5027593;27;111889;-83
2021/03/07 08:59:04;;;;;;;;;9.75;8.50;;;;;;;;5024477;27;113527;-79
2021/03/07 09:01:30;;;;;;;;;8.50;8.50;;;;;;;;5024801;27;115123;-75
2021/03/07 09:03:57;;;;;;;;;10.25;8.00;;;;;;;;5016559;27;113392;-73
2021/03/07 09:06:27;;;;;;;;;10.50;7.00;;;;;;;;5025917;27;113639;-74
2021/03/07 09:09:02;;;;;;;;;7.75;7.75;;;;;;;;5024485;27;114306;-74
2021/03/07 09:11:28;;;;;;;;;7.75;7.75;;;;;;;;5026308;27;111923;-74
2021/03/07 09:13:54;;;;;;;;;11.25;10.00;;;;;;;;5027918;27;113386;-71
2021/03/07 09:16:20;;;;;;;;;11.75;9.25;;;;;;;;5025749;27;112044;-72
2021/03/07 09:18:48;;;;;;;;;8.50;8.50;;;;;;;;5025929;27;113768;-74
2021/03/07 09:21:17;;;;;;;;;8.25;8.25;;;;;;;;5023770;27;114132;-78
2021/03/07 09:23:43;;;;;;;;;7.00;7.00;;;;;;;;5022479;27;112238;-73
2021/03/07 09:26:11;;;;;;;;;12.25;11.00;;;;;;;;5024423;27;113508;-77
2021/03/07 09:28:39;;;;;;;;;14.00;12.00;;;;;;;;5026684;27;114340;-76
2021/03/07 09:31:07;;;;;;;;;11.25;10.75;;;;;;;;5023700;27;112240;-73
2021/03/07 09:33:33;;;;;;;;;10.25;10.25;;;;;;;;5026662;27;113468;-74
2021/03/07 09:36:01;;;;;;;;;12.00;11.00;;;;;;;;5028691;27;111964;-73
2021/03/07 09:38:38;;;;;;;;;12.50;11.25;;;;;;;;5022557;27;113517;-74
2021/03/07 09:41:05;;;;;;;;;15.50;11.00;;;;;;;;5022149;27;114129;-74
2021/03/07 09:43:33;;;;;;;;;13.25;11.00;;;;;;;;5021606;27;113756;-72
2021/03/07 09:45:59;;;;;;;;;10.00;10.00;;;;;;;;5025632;27;113512;-69
2021/03/07 09:48:28;;;;;;;;;14.00;13.25;;;;;;;;5022264;27;114231;-69
2021/03/07 09:50:55;;;;;;;;;11.25;11.00;;;;;;;;5024846;27;112450;-69
2021/03/07 09:53:25;;;;;;;;;8.75;8.75;;;;;;;;5023858;27;113533;-68
2021/03/07 09:55:51;;;;;;;;;8.75;7.50;;;;;;;;5027727;27;115177;-68
2021/03/07 09:58:18;;;;;;;;;10.75;7.00;;;;;;;;5024397;27;113551;-70
2021/03/07 10:00:48;;;;;;;;;8.75;8.00;;;;;;;;5021817;27;113957;-70
2021/03/07 10:03:18;;;;;;;;;8.33;8.33;;;;;;;;5027786;27;112847;-69
2021/03/07 10:06:02;;;;;;;;;8.33;7.00;;;;;;;;5025848;27;114400;-69
2021/03/07 10:08:31;;;;;;;;;7.00;7.00;;;;;;;;5027156;27;113851;-70
2021/03/07 10:11:06;;;;;;;;;7.00;7.00;;;;;;;;5026463;27;111937;-69
2021/03/07 10:13:33;;;;;;;;;5.67;5.00;;;;;;;;5025953;27;113979;-70
2021/03/07 10:15:59;;;;;;;;;7.33;6.67;;;;;;;;5027365;27;114512;-75
2021/03/07 10:18:25;;;;;;;;;7.00;6.67;;;;;;;;5033935;27;113483;-79
2021/03/07 10:20:55;;;;;;;;;6.67;6.33;;;;;;;;5025827;27;114189;-78
2021/03/07 10:23:25;;;;;;;;;6.00;5.00;;;;;;;;5027928;27;111986;-78
2021/03/07 10:25:51;;;;;;;;;9.67;6.67;;;;;;;;5025567;27;114706;-73
2021/03/07 10:28:21;;;;;;;;;4.00;4.00;;;;;;;;5030248;27;114573;-74
2021/03/07 10:30:47;;;;;;;;;6.00;5.00;;;;;;;;5028407;27;111949;-75
2021/03/07 10:33:16;;;;;;;;;5.67;5.67;;;;;;;;5028135;27;113615;-75
2021/03/07 10:36:01;;;;;;;;;4.00;4.00;;;;;;;;5022537;27;112988;-75
2021/03/07 10:38:28;;;;;;;;;6.67;5.00;;;;;;;;5025921;27;112319;-77
2021/03/07 10:40:54;;;;;;;;;5.33;5.33;;;;;;;;5035341;27;113206;-75
2021/03/07 10:43:20;;;;;;;;;4.33;4.33;;;;;;;;5033654;27;111931;-73
2021/03/07 10:45:46;;;;;;;;;3.33;3.33;;;;;;;;5031815;27;113434;-73
2021/03/07 10:48:13;;;;;;;;;7.00;5.33;;;;;;;;5030229;27;113984;-76
2021/03/07 10:50:42;;;;;;;;;5.33;5.33;;;;;;;;5028111;27;113821;-73
2021/03/07 10:53:09;;;;;;;;;6.33;6.00;;;;;;;;5027091;27;114789;-75
2021/03/07 10:55:35;;;;;;;;;8.00;7.00;;;;;;;;5025379;27;114314;-75
2021/03/07 10:58:01;;;;;;;;;8.00;7.33;;;;;;;;5019859;27;112448;-77
2021/03/07 11:00:27;;;;;;;;;7.67;6.67;;;;;;;;5031228;27;114274;-71
2021/03/07 11:02:53;;;;;;;;;6.67;6.67;;;;;;;;5023612;27;112845;-72
2021/03/07 11:05:19;;;;;;;;;7.00;5.00;;;;;;;;5029084;27;113485;-79
2021/03/07 11:07:46;;;;;;;;;10.00;6.00;;;;;;;;5024003;27;114181;-79
2021/03/07 11:10:16;;;;;;;;;9.00;6.33;;;;;;;;5026495;27;112405;-78
2021/03/07 11:12:42;;;;;;;;;4.33;4.33;;;;;;;;5027098;27;113531;-76
2021/03/07 11:15:09;;;;;;;;;8.50;8.00;;;;;;;;5026783;27;114372;-76
2021/03/07 11:17:35;;;;;;;;;9.75;9.00;;;;;;;;5027192;27;112977;-73
2021/03/07 11:20:02;;;;;;;;;8.00;8.00;;;;;;;;5024321;27;112292;-74
2021/03/07 11:22:28;;;;;;;;;8.25;7.25;;;;;;;;5024902;27;117588;-74
2021/03/07 11:24:55;;;;;;;;;4.75;4.25;;;;;;;;5027743;27;112265;-71
2021/03/07 11:27:21;;;;;;;;;7.00;7.00;;;;;;;;5022870;27;114660;-73
2021/03/07 11:29:47;;;;;;;;;5.50;5.50;;;;;;;;5023627;27;113435;-75
2021/03/07 11:32:13;;;;;;;;;6.00;6.00;;;;;;;;5024074;27;113470;-74
2021/03/07 11:34:39;;;;;;;;;5.00;5.00;;;;;;;;5023630;27;113939;-70
2021/03/07 11:37:05;;;;;;;;;5.75;5.75;;;;;;;;5027488;27;112015;-70
2021/03/07 11:39:31;;;;;;;;;5.50;5.25;;;;;;;;5023477;27;113930;-70
2021/03/07 11:41:58;;;;;;;;;6.50;6.50;;;;;;;;5027871;27;113902;-70
2021/03/07 11:44:24;;;;;;;;;6.75;5.50;;;;;;;;5029212;27;112103;-72
2021/03/07 11:46:52;;;;;;;;;8.50;6.25;;;;;;;;5025202;27;114110;-70
2021/03/07 11:49:18;;;;;;;;;5.00;5.00;;;;;;;;5025160;27;111926;-72
2021/03/07 11:51:44;;;;;;;;;6.50;5.00;;;;;;;;5027682;27;114572;-74
2021/03/07 11:54:10;;;;;;;;;5.25;5.00;;;;;;;;5021316;27;113875;-77
2021/03/07 11:56:36;;;;;;;;;6.50;5.00;;;;;;;;5019607;27;111911;-76
2021/03/07 11:59:03;;;;;;;;;5.25;5.25;;;;;;;;5025136;27;113300;-76
2021/03/07 12:01:29;;;;;;;;;5.00;5.00;;;;;;;;5022551;27;114278;-75
2021/03/07 12:03:55;;;;;;;;;40.50;34.75;;;;;;;;5027631;27;112223;-75
2021/03/07 12:06:21;;;;;;;;;19.00;16.00;;;;;;;;5029017;27;113528;-74
2021/03/07 12:08:47;;;;;;;;;7.00;7.00;;;;;;;;5025408;27;112510;-74
2021/03/07 12:11:13;;;;;;;;;5.50;5.50;;;;;;;;5024337;27;114070;-74
2021/03/07 12:13:39;;;;;;;;;6.00;5.00;;;;;;;;5022465;27;114199;-76
2021/03/07 12:16:07;;;;;;;;;7.75;7.25;;;;;;;;5026736;27;112805;-75
2021/03/07 12:18:35;;;;;;;;;5.25;5.25;;;;;;;;5026578;27;114105;-73
2021/03/07 12:21:01;;;;;;;;;5.50;4.00;;;;;;;;5022373;27;114188;-74
2021/03/07 12:23:27;;;;;;;;;5.00;5.00;;;;;;;;5026446;27;113326;-74
2021/03/07 12:25:53;;;;;;;;;6.00;6.00;;;;;;;;5024154;27;113414;-73
2021/03/07 12:28:19;;;;;;;;;6.75;6.00;;;;;;;;5028472;27;114295;-75
2021/03/07 12:30:45;;;;;;;;;6.25;5.00;;;;;;;;5024442;27;113474;-75
2021/03/07 12:33:12;;;;;;;;;4.25;3.00;;;;;;;;5023100;27;115036;-73
2021/03/07 12:35:38;;;;;;;;;4.25;4.25;;;;;;;;5025410;27;111939;-73
2021/03/07 12:38:04;;;;;;;;;6.00;5.00;;;;;;;;5023209;27;112474;-74
2021/03/07 12:40:30;;;;;;;;;6.75;5.00;;;;;;;;5025135;27;114133;-74
2021/03/07 12:42:56;;;;;;;;;7.25;6.25;;;;;;;;5019808;27;112110;-70
2021/03/07 12:45:22;;;;;;;;;7.00;6.75;;;;;;;;5023351;27;113475;-69
2021/03/07 12:47:48;;;;;;;;;7.00;7.00;;;;;;;;5019770;27;112909;-69
2021/03/07 12:50:14;;;;;;;;;6.50;6.00;;;;;;;;5028649;27;111842;-71
2021/03/07 12:52:40;;;;;;;;;6.00;6.00;;;;;;;;5026129;27;113050;-71
2021/03/07 12:55:07;;;;;;;;;5.00;5.00;;;;;;;;5019211;27;112102;-69
2021/03/07 12:57:33;;;;;;;;;6.50;6.50;;;;;;;;5024133;27;114062;-69
2021/03/07 12:59:59;;;;;;;;;8.50;6.25;;;;;;;;5022345;27;114028;-72
2021/03/07 13:02:25;;;;;;;;;6.00;5.00;;;;;;;;5022704;27;112610;-71
2021/03/07 13:04:51;;;;;;;;;6.50;4.25;;;;;;;;5029915;27;115968;-71
2021/03/07 13:07:18;;;;;;;;;9.75;6.00;;;;;;;;5022788;27;112910;-72
2021/03/07 13:09:44;;;;;;;;;8.25;7.00;;;;;;;;5023821;27;112124;-70
2021/03/07 13:12:11;;;;;;;;;6.00;5.00;;;;;;;;5025989;27;113505;-70
2021/03/07 13:14:37;;;;;;;;;5.25;5.25;;;;;;;;5021119;27;112004;-71
2021/03/07 13:17:03;;;;;;;;;7.00;7.00;;;;;;;;5024930;27;113210;-71
2021/03/07 13:19:29;;;;;;;;;5.00;5.00;;;;;;;;5022738;27;114399;-71
2021/03/07 13:21:55;;;;;;;;;6.00;6.00;;;;;;;;5019097;27;113833;-73
2021/03/07 13:24:22;;;;;;;;;6.75;6.00;;;;;;;;5024619;27;114132;-71
2021/03/07 13:26:48;;;;;;;;;9.50;7.00;;;;;;;;5021482;27;113009;-71
2021/03/07 13:29:14;;;;;;;;;5.75;5.75;;;;;;;;5021820;27;112049;-75
2021/03/07 13:31:40;;;;;;;;;6.25;5.75;;;;;;;;5023197;27;113529;-75
2021/03/07 13:34:06;;;;;;;;;7.50;6.25;;;;;;;;5025548;27;113917;-75
2021/03/07 13:36:32;;;;;;;;;9.25;7.00;;;;;;;;5021449;27;113438;-77
2021/03/07 13:38:58;;;;;;;;;7.00;5.75;;;;;;;;5026266;27;114326;-77
2021/03/07 13:41:25;;;;;;;;;6.50;6.50;;;;;;;;5025131;27;111948;-77
2021/03/07 13:43:51;;;;;;;;;5.00;5.00;;;;;;;;5029593;27;114406;-71
2021/03/07 13:46:17;;;;;;;;;1.00;1.00;;;;;;;;5024919;27;113995;-73
2021/03/07 13:48:43;;;;;;;;;5.00;3.00;;;;;;;;5023811;27;111985;-77
2021/03/07 13:51:09;;;;;;;;;4.75;2.50;;;;;;;;5026465;27;113602;-74
2021/03/07 13:53:35;;;;;;;;;5.00;5.00;;;;;;;;5029136;27;114638;-75
2021/03/07 13:56:01;;;;;;;;;5.25;3.00;;;;;;;;5023401;27;113501;-76
2021/03/07 13:58:28;;;;;;;;;3.00;3.00;;;;;;;;5025219;27;114038;-74
2021/03/07 14:00:54;;;;;;;;;3.00;3.00;;;;;;;;5024011;27;112780;-76
2021/03/07 14:03:20;;;;;;;;;3.00;3.00;;;;;;;;5021591;27;112433;-77
2021/03/07 14:05:46;;;;;;;;;5.00;5.00;;;;;;;;5026599;27;114205;-78
2021/03/07 14:08:12;;;;;;;;;2.75;2.50;;;;;;;;5028229;27;112254;-79
2021/03/07 14:10:38;;;;;;;;;3.00;3.00;;;;;;;;5027051;27;113495;-78
2021/03/07 14:13:05;;;;;;;;;3.00;3.00;;;;;;;;5029899;27;114236;-78
2021/03/07 14:15:32;;;;;;;;;6.75;5.00;;;;;;;;5031232;27;112301;-78
2021/03/07 14:17:58;;;;;;;;;4.00;3.00;;;;;;;;5028780;27;114027;-80
2021/03/07 14:20:23;;;;;;;;;4.50;4.50;;;;;;;;5027906;27;112001;-79
2021/03/07 14:22:49;;;;;;;;;1.00;1.00;;;;;;;;5031699;27;113401;-78